Time;durP1;ratioP1;P1;durP2;ratioP2;P2;SDS_P1;SDS_P2;PMS_P1;PMS_P2;Temp;Humidity;BMP_temperature;BMP_pressure;BME280_temperature;BME280_humidity;BME280_pressure;Samples;Min_cycle;Max_cycle;Signal;HPM_P1;HPM_P2
2023/07/24 00:01:09;;;;;;;10.50;6.20;;;;;;;23.91;54.52;100496.95;108091;1289;23199;-60
2023/07/24 00:03:34;;;;;;;10.10;5.70;;;;;;;23.84;53.98;100494.21;108096;1284;21991;-60
2023/07/24 00:06:01;;;;;;;8.30;6.50;;;;;;;23.77;54.43;100496.77;108073;1284;21989;-59
2023/07/24 00:08:27;;;;;;;8.30;6.50;;;;;;;23.72;54.42;100495.31;108096;1287;21994;-59
2023/07/24 00:10:52;;;;;;;11.10;6.40;;;;;;;23.64;54.52;100494.63;108100;1284;21992;-70
2023/07/24 00:13:18;;;;;;;8.30;6.70;;;;;;;23.57;55.03;100492.70;108094;1288;21990;-70
2023/07/24 00:15:43;;;;;;;10.00;6.40;;;;;;;23.53;55.44;100494.23;108083;1288;21993;-60
2023/07/24 00:18:09;;;;;;;8.80;6.30;;;;;;;23.51;55.65;100494.73;108125;1284;23452;-60
2023/07/24 00:20:34;;;;;;;9.90;6.80;;;;;;;23.51;55.72;100495.28;108077;1287;21992;-60
2023/07/24 00:23:00;;;;;;;10.80;7.00;;;;;;;23.53;55.83;100491.34;108072;1288;21985;-61
2023/07/24 00:25:26;;;;;;;8.30;6.50;;;;;;;23.58;56.23;100487.84;108114;1277;21994;-70
2023/07/24 00:27:51;;;;;;;8.70;7.20;;;;;;;23.58;56.48;100485.15;108075;1284;22033;-59
2023/07/24 00:30:17;;;;;;;9.80;7.60;;;;;;;23.56;56.40;100487.21;108046;1284;21992;-70
2023/07/24 00:32:42;;;;;;;9.00;6.80;;;;;;;23.56;56.53;100487.06;108061;1289;21990;-69
2023/07/24 00:35:08;;;;;;;8.90;6.90;;;;;;;23.58;56.63;100486.59;108129;1279;21985;-59
2023/07/24 00:37:34;;;;;;;8.30;6.60;;;;;;;23.59;56.62;100483.96;108084;1287;21957;-61
2023/07/24 00:39:59;;;;;;;9.50;6.70;;;;;;;23.61;56.65;100483.31;108086;1288;21989;-69
2023/07/24 00:42:25;;;;;;;11.30;6.80;;;;;;;23.60;56.54;100482.99;108083;1284;22173;-69
2023/07/24 00:44:51;;;;;;;8.50;6.70;;;;;;;23.55;56.04;100484.77;108085;1288;21992;-69
2023/07/24 00:47:17;;;;;;;9.10;7.00;;;;;;;23.54;56.40;100487.02;108014;1284;21992;-64
2023/07/24 00:49:43;;;;;;;10.60;6.90;;;;;;;23.55;56.67;100488.21;108164;1277;21994;-70
2023/07/24 00:52:08;;;;;;;9.40;7.80;;;;;;;23.54;56.53;100489.16;108082;1288;21992;-59
2023/07/24 00:54:34;;;;;;;8.20;6.90;;;;;;;23.55;56.64;100486.97;108087;1287;21992;-59
2023/07/24 00:56:59;;;;;;;8.30;7.40;;;;;;;23.56;56.85;100486.52;108074;1288;21996;-69
2023/07/24 00:59:25;;;;;;;11.30;7.50;;;;;;;23.56;56.94;100483.85;108122;1287;22025;-69
2023/07/24 01:01:51;;;;;;;7.90;7.00;;;;;;;23.52;57.06;100484.08;108002;1283;21982;-59
2023/07/24 01:04:16;;;;;;;9.50;7.80;;;;;;;23.50;57.22;100484.95;108073;1284;21989;-59
2023/07/24 01:06:42;;;;;;;11.50;7.70;;;;;;;23.48;57.05;100484.54;108100;1284;21989;-69
2023/07/24 01:09:07;;;;;;;10.90;7.90;;;;;;;23.44;57.18;100486.38;108086;1284;21987;-69
2023/07/24 01:11:37;;;;;;;10.50;7.70;;;;;;;23.43;57.30;100486.45;108088;1284;21994;-60
2023/07/24 01:14:13;;;;;;;9.40;8.00;;;;;;;23.44;57.56;100480.84;108032;1288;22024;-69
2023/07/24 01:16:41;;;;;;;8.70;7.80;;;;;;;23.45;57.70;100481.82;108086;1283;21996;-59
2023/07/24 01:19:30;;;;;;;10.60;7.50;;;;;;;23.49;57.79;100482.16;108105;1287;21992;-59
2023/07/24 01:22:25;;;;;;;9.80;7.70;;;;;;;23.51;57.45;100485.07;108081;1284;21989;-60
2023/07/24 01:25:01;;;;;;;10.80;7.80;;;;;;;23.51;57.60;100482.02;108111;1287;22030;-59
2023/07/24 01:27:26;;;;;;;12.50;7.20;;;;;;;23.51;57.62;100478.63;108078;1284;24083;-70
2023/07/24 01:29:52;;;;;;;8.20;7.30;;;;;;;23.52;57.61;100480.52;108068;1287;22001;-60
2023/07/24 01:32:18;;;;;;;9.00;7.80;;;;;;;23.52;57.57;100477.65;108069;1284;21993;-59
2023/07/24 01:34:44;;;;;;;9.20;7.20;;;;;;;23.51;57.69;100478.05;108132;1277;22005;-66
2023/07/24 01:37:10;;;;;;;12.50;8.00;;;;;;;23.52;57.62;100480.35;108085;1288;21986;-59
2023/07/24 01:39:35;;;;;;;11.40;7.40;;;;;;;23.52;57.40;100478.55;108047;1287;21990;-60
2023/07/24 01:42:01;;;;;;;10.80;7.30;;;;;;;23.51;57.38;100477.38;107995;1281;22002;-59
2023/07/24 01:44:27;;;;;;;11.00;7.50;;;;;;;23.48;57.16;100478.08;108068;1287;21992;-69
2023/07/24 01:46:53;;;;;;;11.20;7.10;;;;;;;23.44;56.97;100476.73;107972;1284;22069;-70
2023/07/24 01:49:18;;;;;;;10.10;7.10;;;;;;;23.42;56.97;100482.05;108050;1284;22043;-59
2023/07/24 01:51:44;;;;;;;10.90;7.00;;;;;;;23.39;57.00;100482.09;108077;1288;22005;-59
2023/07/24 01:54:09;;;;;;;10.60;7.50;;;;;;;23.36;57.20;100481.56;108048;1284;22185;-59
2023/07/24 01:56:36;;;;;;;10.70;6.90;;;;;;;23.34;57.02;100483.45;108107;1284;21988;-70
2023/07/24 01:59:01;;;;;;;8.20;6.60;;;;;;;23.29;56.91;100488.77;108066;1284;21991;-59
2023/07/24 02:01:27;;;;;;;11.20;7.20;;;;;;;23.24;56.68;100489.27;108045;1288;22456;-59
2023/07/24 02:03:52;;;;;;;11.40;6.50;;;;;;;23.19;56.55;100489.77;108082;1284;22045;-69
2023/07/24 02:06:18;;;;;;;9.10;7.00;;;;;;;23.17;56.31;100488.06;107981;1284;22026;-69
2023/07/24 02:08:48;;;;;;;11.50;6.50;;;;;;;23.14;55.89;100491.30;108024;1284;21989;-59
2023/07/24 02:11:17;;;;;;;7.30;6.40;;;;;;;23.08;55.66;100493.69;108094;1289;21998;-59
2023/07/24 02:13:44;;;;;;;8.60;7.10;;;;;;;23.01;55.64;100494.96;108080;1288;21992;-59
2023/07/24 02:16:09;;;;;;;12.30;7.50;;;;;;;22.95;55.62;100494.44;108130;1284;23451;-69
2023/07/24 02:18:35;;;;;;;12.70;6.50;;;;;;;22.90;55.40;100499.94;108069;1289;22006;-59
2023/07/24 02:21:00;;;;;;;14.10;6.60;;;;;;;22.82;55.32;100499.72;108059;1287;22000;-70
2023/07/24 02:23:26;;;;;;;10.70;7.10;;;;;;;22.76;55.41;100497.59;107935;1287;23059;-59
2023/07/24 02:25:54;;;;;;;11.70;8.00;;;;;;;22.73;55.62;100500.67;108045;1284;22046;-69
2023/07/24 02:28:20;;;;;;;13.40;7.50;;;;;;;22.70;55.66;100500.09;108075;1284;22000;-68
2023/07/24 02:30:48;;;;;;;15.70;7.80;;;;;;;22.66;55.68;100502.46;108056;1288;22011;-59
2023/07/24 02:33:14;;;;;;;13.30;8.00;;;;;;;22.60;55.60;100501.41;108093;1284;21977;-69
2023/07/24 02:35:41;;;;;;;11.50;8.00;;;;;;;22.55;55.51;100499.01;108093;1288;21992;-61
2023/07/24 02:38:07;;;;;;;14.90;9.00;;;;;;;22.51;55.47;100498.73;108028;1289;22001;-60
2023/07/24 02:40:34;;;;;;;11.80;8.40;;;;;;;22.47;55.51;100500.29;108076;1284;21982;-59
2023/07/24 02:42:59;;;;;;;11.60;8.80;;;;;;;22.43;55.58;100498.87;108147;1289;21990;-69
2023/07/24 02:45:25;;;;;;;13.20;8.70;;;;;;;22.40;55.61;100499.91;108042;1278;21999;-60
2023/07/24 02:47:50;;;;;;;12.90;8.80;;;;;;;22.37;55.66;100499.88;108081;1288;23081;-60
2023/07/24 02:50:16;;;;;;;11.70;8.70;;;;;;;22.38;55.81;100502.52;108080;1289;22358;-69
2023/07/24 02:52:41;;;;;;;14.20;9.40;;;;;;;22.40;56.04;100502.07;108056;1287;21992;-69
2023/07/24 02:55:07;;;;;;;20.30;10.30;;;;;;;22.37;55.96;100501.33;108122;1288;21971;-69
2023/07/24 02:57:33;;;;;;;24.60;9.90;;;;;;;22.39;56.40;100501.78;108068;1288;21992;-69
2023/07/24 02:59:58;;;;;;;18.30;9.70;;;;;;;22.42;56.54;100505.33;108068;1284;22000;-60
2023/07/24 03:02:24;;;;;;;30.00;14.60;;;;;;;22.45;56.52;100507.32;108080;1288;22026;-68
2023/07/24 03:04:50;;;;;;;20.20;10.20;;;;;;;22.50;56.62;100508.98;108128;1287;21989;-61
2023/07/24 03:07:15;;;;;;;35.30;10.00;;;;;;;22.56;56.82;100505.23;108052;1284;21983;-69
2023/07/24 03:09:41;;;;;;;28.40;10.00;;;;;;;22.63;57.03;100504.99;108015;1289;21996;-60
2023/07/24 03:12:07;;;;;;;29.40;9.70;;;;;;;22.69;56.90;100500.16;108068;1289;21989;-69
2023/07/24 03:14:32;;;;;;;23.00;8.90;;;;;;;22.75;56.84;100501.20;108003;1287;21998;-69
2023/07/24 03:16:58;;;;;;;22.80;9.70;;;;;;;22.78;56.63;100502.64;108072;1284;22477;-60
2023/07/24 03:19:23;;;;;;;18.30;8.30;;;;;;;22.77;56.75;100504.87;108067;1284;22463;-69
2023/07/24 03:21:49;;;;;;;21.00;8.10;;;;;;;22.70;56.60;100504.73;107948;1287;21992;-68
2023/07/24 03:24:14;;;;;;;19.80;8.70;;;;;;;22.68;56.95;100509.58;108091;1283;21990;-60
2023/07/24 03:26:40;;;;;;;20.70;8.30;;;;;;;22.68;57.53;100509.34;108059;1278;21985;-61
2023/07/24 03:29:05;;;;;;;19.50;7.80;;;;;;;22.72;57.38;100510.88;108027;1284;21992;-60
2023/07/24 03:31:31;;;;;;;22.60;9.40;;;;;;;22.75;57.30;100512.85;108037;1289;21989;-68
2023/07/24 03:33:57;;;;;;;14.80;8.40;;;;;;;22.74;57.24;100514.52;108062;1288;22000;-60
2023/07/24 03:36:22;;;;;;;18.00;7.80;;;;;;;22.74;57.37;100516.86;108056;1284;21997;-69
2023/07/24 03:38:48;;;;;;;17.40;8.20;;;;;;;22.77;57.66;100519.52;108082;1285;21992;-69
2023/07/24 03:41:13;;;;;;;19.30;8.50;;;;;;;22.81;58.00;100514.80;108033;1289;22003;-69
2023/07/24 03:43:39;;;;;;;14.50;8.30;;;;;;;22.86;58.30;100515.09;108017;1284;21992;-60
2023/07/24 03:46:04;;;;;;;12.40;7.80;;;;;;;22.92;58.48;100514.34;108060;1289;21993;-60
2023/07/24 03:48:30;;;;;;;21.20;9.00;;;;;;;23.00;58.61;100516.33;108032;1289;21995;-69
2023/07/24 03:50:59;;;;;;;13.30;7.50;;;;;;;23.10;58.91;100510.55;108033;1287;21998;-69
2023/07/24 03:53:25;;;;;;;10.70;8.40;;;;;;;23.22;59.16;100512.66;108071;1289;22107;-60
2023/07/24 03:55:51;;;;;;;13.40;8.10;;;;;;;23.34;59.27;100513.88;108045;1289;22000;-60
2023/07/24 03:58:16;;;;;;;14.70;7.60;;;;;;;23.47;59.13;100513.27;108048;1284;21990;-60
2023/07/24 04:00:42;;;;;;;16.30;7.90;;;;;;;23.58;59.23;100513.63;108227;1284;21991;-60
2023/07/24 04:03:07;;;;;;;13.00;7.70;;;;;;;23.69;59.13;100515.44;108149;1288;21988;-59
2023/07/24 04:05:34;;;;;;;11.90;8.20;;;;;;;23.80;59.34;100512.05;107998;1289;21994;-67
2023/07/24 04:08:00;;;;;;;15.90;9.40;;;;;;;23.89;59.12;100514.09;108125;1286;21993;-60
2023/07/24 04:10:26;;;;;;;13.00;8.90;;;;;;;23.98;59.17;100514.76;108119;1287;22022;-59
2023/07/24 04:12:51;;;;;;;13.30;8.80;;;;;;;24.10;58.97;100515.11;108088;1284;22818;-58
2023/07/24 04:15:17;;;;;;;17.90;7.50;;;;;;;24.20;59.03;100511.89;108093;1284;21990;-59
2023/07/24 04:17:43;;;;;;;13.60;7.50;;;;;;;24.32;59.23;100510.75;108076;1287;21989;-67
2023/07/24 04:20:09;;;;;;;10.20;7.70;;;;;;;24.44;59.37;100511.86;108113;1289;22029;-60
2023/07/24 04:22:34;;;;;;;12.90;7.40;;;;;;;24.57;59.11;100511.75;108037;1289;21996;-59
2023/07/24 04:25:00;;;;;;;12.80;8.00;;;;;;;24.69;59.37;100512.52;108072;1278;22092;-69
2023/07/24 04:27:26;;;;;;;12.90;7.50;;;;;;;24.83;59.50;100510.31;108108;1286;22000;-68
2023/07/24 04:29:51;;;;;;;13.60;7.20;;;;;;;24.97;59.58;100511.48;108081;1284;21990;-68
2023/07/24 04:32:17;;;;;;;12.90;6.90;;;;;;;25.11;60.14;100511.77;108065;1288;21997;-68
2023/07/24 04:34:43;;;;;;;9.90;6.50;;;;;;;25.28;60.13;100514.52;108074;1289;23651;-59
2023/07/24 04:37:11;;;;;;;15.10;7.60;;;;;;;25.43;59.96;100518.27;108037;1286;21992;-67
2023/07/24 04:39:38;;;;;;;12.30;7.20;;;;;;;25.59;60.51;100518.80;108056;1288;21992;-67
2023/07/24 04:42:04;;;;;;;12.70;6.40;;;;;;;25.75;60.43;100519.04;108093;1287;22027;-60
2023/07/24 04:44:31;;;;;;;17.10;6.70;;;;;;;25.91;60.43;100519.81;108086;1281;22000;-60
2023/07/24 04:46:58;;;;;;;12.80;6.80;;;;;;;26.08;60.22;100514.62;108074;1287;21994;-67
2023/07/24 04:49:24;;;;;;;15.50;7.20;;;;;;;26.22;59.82;100512.46;108060;1287;21989;-68
2023/07/24 04:51:50;;;;;;;13.60;6.20;;;;;;;26.36;59.67;100511.48;108124;1284;22173;-60
2023/07/24 04:54:17;;;;;;;14.10;6.50;;;;;;;26.50;59.45;100510.00;108089;1279;21987;-60
2023/07/24 04:56:42;;;;;;;10.60;6.40;;;;;;;26.67;59.57;100513.38;108090;1287;21990;-59
2023/07/24 04:59:08;;;;;;;10.50;5.80;;;;;;;26.86;59.92;100514.30;108094;1288;21995;-60
2023/07/24 05:01:34;;;;;;;10.20;6.80;;;;;;;27.06;59.72;100510.67;108060;1288;22027;-60
2023/07/24 05:03:59;;;;;;;10.60;6.40;;;;;;;27.26;59.74;100510.40;108097;1278;21989;-60
2023/07/24 05:06:26;;;;;;;15.50;6.70;;;;;;;27.45;59.35;100509.23;108101;1288;21975;-68
2023/07/24 05:08:54;;;;;;;12.60;6.90;;;;;;;27.67;59.24;100504.40;108080;1288;21989;-60
2023/07/24 05:11:20;;;;;;;17.20;5.60;;;;;;;27.87;58.62;100501.71;108096;1278;21993;-69
2023/07/24 05:13:45;;;;;;;8.40;6.00;;;;;;;28.03;58.45;100496.39;108086;1284;21992;-60
2023/07/24 05:16:11;;;;;;;11.10;5.30;;;;;;;28.23;58.84;100496.34;108017;1287;22028;-68
2023/07/24 05:18:37;;;;;;;9.50;5.90;;;;;;;28.47;58.68;100493.80;108008;1288;22000;-69
2023/07/24 05:21:02;;;;;;;11.60;6.50;;;;;;;28.68;58.00;100490.57;108065;1288;22004;-61
2023/07/24 05:23:28;;;;;;;8.10;5.80;;;;;;;28.83;57.71;100486.34;108105;1288;21992;-60
2023/07/24 05:25:58;;;;;;;10.10;6.70;;;;;;;29.01;57.45;100486.05;108068;1285;21992;-60
2023/07/24 05:28:27;;;;;;;8.50;6.30;;;;;;;29.25;57.64;100483.71;108199;1288;21997;-61
2023/07/24 05:30:53;;;;;;;8.30;5.80;;;;;;;29.55;57.16;100483.11;108093;1285;22107;-69
2023/07/24 05:33:19;;;;;;;9.90;5.50;;;;;;;29.81;56.48;100476.90;108038;1288;23612;-68
2023/07/24 05:35:45;;;;;;;7.50;5.00;;;;;;;30.05;55.57;100479.81;108113;1288;21992;-69
2023/07/24 05:38:10;;;;;;;6.90;4.90;;;;;;;30.20;54.35;100480.95;108079;1288;21992;-68
2023/07/24 05:40:36;;;;;;;6.90;4.50;;;;;;;30.32;53.22;100481.80;108132;1288;21994;-68
2023/07/24 05:43:01;;;;;;;7.10;5.10;;;;;;;30.37;51.91;100483.84;108110;1287;21992;-68
2023/07/24 05:45:27;;;;;;;10.00;5.30;;;;;;;30.48;52.03;100482.31;108095;1288;21997;-68
2023/07/24 05:47:53;;;;;;;8.00;5.60;;;;;;;30.64;51.32;100482.06;108058;1288;21993;-68
2023/07/24 05:50:18;;;;;;;9.60;5.80;;;;;;;30.76;50.82;100485.08;108092;1284;22005;-69
2023/07/24 05:52:44;;;;;;;7.40;5.90;;;;;;;30.91;50.56;100483.48;108066;1288;22251;-68
2023/07/24 05:55:10;;;;;;;9.60;6.10;;;;;;;31.13;51.19;100483.56;108066;1284;21990;-68
2023/07/24 05:57:35;;;;;;;8.10;5.90;;;;;;;31.40;51.43;100478.05;108189;1285;22006;-62
2023/07/24 06:00:05;;;;;;;10.50;5.90;;;;;;;31.74;51.82;100475.77;108126;1284;21992;-69
2023/07/24 06:02:31;;;;;;;11.80;6.00;;;;;;;32.03;50.92;100475.20;108082;1288;22170;-61
2023/07/24 06:04:56;;;;;;;7.80;5.60;;;;;;;32.21;50.15;100471.40;108108;1284;21986;-61
2023/07/24 06:07:22;;;;;;;9.40;5.00;;;;;;;32.35;49.70;100472.65;108094;1284;21987;-68
2023/07/24 06:09:47;;;;;;;8.80;5.20;;;;;;;32.52;49.29;100468.91;108120;1288;21989;-60
2023/07/24 06:12:13;;;;;;;11.40;5.70;;;;;;;32.68;48.29;100471.05;108107;1288;22013;-67
2023/07/24 06:14:38;;;;;;;8.30;4.30;;;;;;;32.78;47.45;100468.73;108079;1288;22027;-61
2023/07/24 06:17:04;;;;;;;7.20;3.90;;;;;;;32.83;44.22;100465.90;108049;1288;21990;-69
2023/07/24 06:19:30;;;;;;;7.40;3.90;;;;;;;32.95;45.58;100471.54;108044;1288;24312;-68
2023/07/24 06:21:55;;;;;;;7.00;3.80;;;;;;;33.09;43.54;100473.98;108107;1284;22013;-61
2023/07/24 06:24:23;;;;;;;9.80;4.20;;;;;;;33.17;43.72;100477.97;108174;1288;23732;-59
2023/07/24 06:26:49;;;;;;;7.50;3.90;;;;;;;33.39;43.90;100471.15;108066;1288;21994;-67
2023/07/24 06:29:15;;;;;;;6.40;3.60;;;;;;;33.60;43.50;100471.70;108184;1284;21986;-69
2023/07/24 06:31:41;;;;;;;6.40;3.30;;;;;;;33.76;42.45;100471.33;108241;1288;21991;-68
2023/07/24 06:34:08;;;;;;;7.50;3.80;;;;;;;33.88;41.36;100465.86;108303;1284;21998;-69
2023/07/24 06:36:35;;;;;;;6.60;3.20;;;;;;;34.02;41.38;100465.17;108236;1288;22156;-71
2023/07/24 06:39:01;;;;;;;8.30;3.30;;;;;;;34.21;41.44;100467.27;108079;1284;21980;-68
2023/07/24 06:41:26;;;;;;;10.90;4.00;;;;;;;34.42;41.33;100463.64;107989;1281;22002;-60
2023/07/24 06:43:52;;;;;;;9.60;3.80;;;;;;;34.69;41.07;100461.53;107980;1287;21988;-68
2023/07/24 06:46:18;;;;;;;7.80;3.40;;;;;;;34.99;39.87;100458.04;108082;1286;21960;-68
2023/07/24 06:48:44;;;;;;;6.20;3.30;;;;;;;35.25;39.19;100454.46;108171;1279;23728;-66
2023/07/24 06:51:10;;;;;;;6.50;3.40;;;;;;;35.48;38.65;100451.30;108197;1288;23839;-66
2023/07/24 06:53:36;;;;;;;6.20;3.60;;;;;;;35.51;37.88;100449.52;108061;1287;22004;-67
2023/07/24 06:56:02;;;;;;;8.30;3.80;;;;;;;35.54;38.04;100446.34;108087;1281;23060;-59
2023/07/24 06:58:27;;;;;;;5.90;4.10;;;;;;;35.68;37.53;100447.43;108086;1280;22000;-59
2023/07/24 07:00:53;;;;;;;7.00;3.60;;;;;;;35.94;38.19;100445.33;107890;1283;187547;-59
2023/07/24 07:03:19;;;;;;;4.80;3.40;;;;;;;36.11;37.37;100444.19;108053;1288;21995;-59
2023/07/24 07:05:44;;;;;;;6.10;3.50;;;;;;;36.25;37.09;100438.89;108079;1288;21995;-60
2023/07/24 07:08:10;;;;;;;4.80;3.60;;;;;;;36.51;37.73;100439.30;108112;1288;21986;-60
2023/07/24 07:10:35;;;;;;;6.60;3.10;;;;;;;36.83;37.91;100438.73;108080;1288;21976;-60
2023/07/24 07:13:01;;;;;;;5.90;3.10;;;;;;;37.07;36.91;100434.67;108043;1289;21990;-59
2023/07/24 07:15:26;;;;;;;7.50;3.20;;;;;;;37.23;36.03;100438.31;108031;1288;22006;-60
2023/07/24 07:17:52;;;;;;;5.50;3.20;;;;;;;37.37;35.74;100435.05;108081;1278;21992;-61
2023/07/24 07:20:18;;;;;;;6.90;3.20;;;;;;;37.49;34.94;100437.17;108064;1287;22009;-60
2023/07/24 07:22:43;;;;;;;4.60;3.50;;;;;;;37.53;33.54;100436.64;108008;1289;22030;-62
2023/07/24 07:25:09;;;;;;;5.20;3.10;;;;;;;37.53;33.98;100431.45;108040;1285;21992;-60
2023/07/24 07:27:35;;;;;;;6.30;3.30;;;;;;;37.62;33.74;100428.66;108032;1288;21999;-61
2023/07/24 07:30:00;;;;;;;6.00;3.30;;;;;;;37.72;33.20;100428.84;108096;1288;21983;-60
2023/07/24 07:32:26;;;;;;;6.40;4.20;;;;;;;37.81;33.28;100427.05;108026;1283;21990;-61
2023/07/24 07:34:52;;;;;;;8.70;4.20;;;;;;;37.67;32.11;100424.77;108008;1283;22001;-61
2023/07/24 07:37:18;;;;;;;5.30;3.60;;;;;;;37.57;32.59;100426.40;108010;1288;21990;-60
2023/07/24 07:39:43;;;;;;;5.70;4.00;;;;;;;37.77;33.48;100428.67;108016;1288;21999;-60
2023/07/24 07:42:09;;;;;;;6.30;3.90;;;;;;;37.96;32.19;100422.23;108035;1288;22104;-61
2023/07/24 07:44:35;;;;;;;5.10;3.30;;;;;;;38.12;31.70;100420.91;108072;1284;21993;-61
2023/07/24 07:47:00;;;;;;;5.90;3.50;;;;;;;38.22;30.99;100418.98;108047;1288;21993;-61
2023/07/24 07:49:26;;;;;;;6.30;3.40;;;;;;;38.01;29.92;100413.84;107972;1287;22030;-61
2023/07/24 07:51:52;;;;;;;8.90;3.30;;;;;;;37.80;30.59;100409.02;108027;1279;21991;-61
2023/07/24 07:54:18;;;;;;;7.50;3.30;;;;;;;37.77;30.25;100406.48;107980;1278;21994;-61
2023/07/24 07:56:44;;;;;;;5.80;3.20;;;;;;;37.94;31.53;100407.58;108049;1288;21985;-67
2023/07/24 07:59:09;;;;;;;4.70;3.20;;;;;;;38.07;30.24;100408.49;108087;1288;21994;-67
2023/07/24 08:01:39;;;;;;;5.70;3.00;;;;;;;38.23;30.41;100405.57;108063;1285;22007;-61
2023/07/24 08:04:05;;;;;;;4.60;3.30;;;;;;;38.40;30.67;100405.14;108068;1288;23715;-61
2023/07/24 08:06:30;;;;;;;6.10;3.30;;;;;;;38.55;29.51;100409.89;108046;1288;21998;-62
2023/07/24 08:08:56;;;;;;;6.90;2.80;;;;;;;38.58;29.15;100404.83;108010;1285;22026;-62
2023/07/24 08:11:21;;;;;;;8.50;3.50;;;;;;;38.55;30.09;100403.96;108052;1287;22004;-61
2023/07/24 08:13:47;;;;;;;9.40;3.50;;;;;;;38.65;29.66;100405.52;108029;1288;22009;-61
2023/07/24 08:16:18;;;;;;;7.00;3.50;;;;;;;38.77;28.68;100396.95;108067;1288;21994;-61
2023/07/24 08:18:46;;;;;;;5.90;3.20;;;;;;;38.96;29.70;100392.27;108033;1288;21997;-61
2023/07/24 08:21:13;;;;;;;10.10;4.00;;;;;;;39.19;29.44;100396.52;108102;1288;22024;-68
2023/07/24 08:23:39;;;;;;;4.60;3.40;;;;;;;39.36;28.77;100399.34;108109;1288;21989;-62
2023/07/24 08:26:07;;;;;;;13.20;3.80;;;;;;;39.44;29.27;100398.46;108070;1288;22024;-67
2023/07/24 08:28:36;;;;;;;6.30;3.30;;;;;;;39.59;28.76;100390.52;108095;1288;21992;-61
2023/07/24 08:31:02;;;;;;;5.80;2.80;;;;;;;39.60;28.73;100388.40;108058;1280;22002;-61
2023/07/24 08:33:29;;;;;;;9.60;3.90;;;;;;;39.65;29.02;100386.84;108085;1287;21950;-63
2023/07/24 08:36:07;;;;;;;5.00;3.60;;;;;;;39.61;28.98;100388.23;108157;1287;22010;-61
2023/07/24 08:38:33;;;;;;;8.10;4.10;;;;;;;39.46;28.71;100387.34;108111;1283;22029;-68
2023/07/24 08:41:07;;;;;;;10.80;4.00;;;;;;;39.25;28.41;100390.49;108105;1288;22000;-62
2023/07/24 08:43:34;;;;;;;5.20;3.30;;;;;;;39.07;28.78;100392.14;108091;1288;21992;-68
2023/07/24 08:46:00;;;;;;;5.40;3.10;;;;;;;39.10;29.15;100390.50;108078;1283;22263;-61
2023/07/24 08:48:28;;;;;;;7.60;3.70;;;;;;;39.32;29.08;100385.77;108147;1283;22027;-67
2023/07/24 08:50:53;;;;;;;5.50;3.10;;;;;;;39.71;29.21;100380.79;108143;1288;21991;-67
2023/07/24 08:53:20;;;;;;;4.10;3.10;;;;;;;40.02;27.87;100381.13;108091;1283;22030;-61
2023/07/24 08:55:48;;;;;;;7.40;3.20;;;;;;;40.15;28.21;100377.55;108109;1286;21999;-62
2023/07/24 08:58:14;;;;;;;6.90;3.60;;;;;;;40.19;26.47;100373.98;108159;1283;22759;-67
2023/07/24 09:00:40;;;;;;;5.20;3.70;;;;;;;40.00;26.72;100372.96;108078;1283;21977;-61
2023/07/24 09:03:05;;;;;;;4.90;3.40;;;;;;;39.85;26.85;100367.71;108119;1288;21989;-62
2023/07/24 09:05:31;;;;;;;4.30;3.40;;;;;;;39.93;27.66;100368.43;108017;1287;21986;-67
2023/07/24 09:07:56;;;;;;;4.60;3.10;;;;;;;40.11;26.66;100364.41;108085;1288;22009;-67
2023/07/24 09:10:26;;;;;;;4.20;3.10;;;;;;;40.24;25.89;100363.42;108085;1288;22000;-68
2023/07/24 09:12:51;;;;;;;11.80;5.10;;;;;;;40.41;26.40;100361.47;108088;1288;23447;-67
2023/07/24 09:15:17;;;;;;;5.40;3.40;;;;;;;40.40;25.23;100360.01;108091;1288;23268;-68
2023/07/24 09:17:50;;;;;;;5.90;3.90;;;;;;;40.43;26.46;100355.61;108053;1286;22031;-68
2023/07/24 09:20:16;;;;;;;5.80;3.20;;;;;;;40.61;26.39;100353.30;108091;1284;22034;-68
2023/07/24 09:22:49;;;;;;;6.80;3.10;;;;;;;40.83;26.59;100347.10;108058;1286;21990;-68
2023/07/24 09:25:15;;;;;;;7.00;3.10;;;;;;;41.16;26.78;100348.84;108104;1280;22000;-61
2023/07/24 09:27:40;;;;;;;4.40;3.60;;;;;;;41.50;26.76;100348.73;108056;1284;22002;-67
2023/07/24 09:30:15;;;;;;;4.10;3.30;;;;;;;41.70;26.19;100345.52;107982;1287;22073;-62
2023/07/24 09:32:41;;;;;;;7.40;3.40;;;;;;;41.73;25.79;100347.10;108055;1288;21995;-67
2023/07/24 09:35:19;;;;;;;6.00;3.60;;;;;;;41.66;25.96;100342.70;108071;1278;21997;-61
2023/07/24 09:37:45;;;;;;;6.00;3.10;;;;;;;41.69;26.77;100342.20;108096;1276;22005;-62
2023/07/24 09:40:11;;;;;;;6.10;3.20;;;;;;;41.90;26.59;100338.82;108128;1287;21997;-61
2023/07/24 09:42:38;;;;;;;10.90;4.40;;;;;;;42.25;26.21;100333.93;108065;1284;22004;-62
2023/07/24 09:45:04;;;;;;;4.10;3.40;;;;;;;42.25;23.88;100332.23;108079;1282;21993;-67
2023/07/24 09:47:32;;;;;;;4.50;3.40;;;;;;;42.04;24.35;100335.90;108111;1287;21982;-66
2023/07/24 09:49:59;;;;;;;6.60;3.40;;;;;;;41.88;23.94;100333.87;108081;1287;22004;-61
2023/07/24 09:52:28;;;;;;;8.40;3.40;;;;;;;41.74;23.98;100335.11;108102;1287;22029;-61
2023/07/24 09:55:12;;;;;;;7.70;3.70;;;;;;;41.66;24.52;100332.30;108122;1287;21990;-61
2023/07/24 09:57:37;;;;;;;8.10;3.60;;;;;;;41.67;23.69;100327.48;108073;1288;21963;-65
2023/07/24 10:00:04;;;;;;;9.60;3.40;;;;;;;41.71;23.36;100326.00;107972;1287;22037;-67
2023/07/24 10:02:30;;;;;;;5.50;3.20;;;;;;;41.67;23.60;100321.08;108086;1288;21998;-62
2023/07/24 10:04:56;;;;;;;4.70;3.10;;;;;;;41.58;22.90;100316.91;107993;1281;21994;-61
2023/07/24 10:07:23;;;;;;;5.30;3.10;;;;;;;41.66;23.27;100316.41;108078;1280;22452;-67
2023/07/24 10:09:52;;;;;;;6.40;3.70;;;;;;;41.83;23.08;100314.62;108091;1283;21998;-62
2023/07/24 10:12:19;;;;;;;5.00;3.60;;;;;;;41.83;23.17;100314.50;108094;1288;22000;-61
2023/07/24 10:14:47;;;;;;;5.50;3.30;;;;;;;41.77;23.30;100314.20;108103;1283;22001;-68
2023/07/24 10:17:13;;;;;;;7.40;3.20;;;;;;;41.68;22.64;100314.77;107812;1283;21992;-61
2023/07/24 10:19:39;;;;;;;4.60;3.50;;;;;;;41.68;23.50;100308.70;108088;1288;22000;-67
2023/07/24 10:22:05;;;;;;;5.60;2.90;;;;;;;41.80;23.34;100307.90;108110;1283;21991;-67
2023/07/24 10:24:33;;;;;;;8.50;3.10;;;;;;;41.89;22.97;100297.89;108015;1288;22033;-67
2023/07/24 10:26:58;;;;;;;6.00;3.70;;;;;;;42.00;22.18;100293.37;108113;1288;23535;-61
2023/07/24 10:29:27;;;;;;;5.20;3.30;;;;;;;42.06;23.15;100290.80;108043;1284;21997;-61
2023/07/24 10:31:54;;;;;;;5.70;3.20;;;;;;;42.34;23.71;100293.38;108079;1288;22002;-62
2023/07/24 10:34:19;;;;;;;7.40;3.90;;;;;;;42.74;22.36;100290.98;108130;1288;21990;-65
2023/07/24 10:36:45;;;;;;;7.60;3.30;;;;;;;42.78;22.01;100292.52;108072;1289;22023;-67
2023/07/24 10:39:15;;;;;;;6.10;3.80;;;;;;;42.39;22.02;100282.80;108010;1288;21955;-67
2023/07/24 10:41:40;;;;;;;6.30;3.30;;;;;;;42.29;22.61;100278.25;108076;1288;23318;-62
2023/07/24 10:44:06;;;;;;;4.30;3.00;;;;;;;42.32;22.62;100279.41;108034;1288;21992;-67
2023/07/24 10:46:40;;;;;;;6.20;3.40;;;;;;;42.16;21.59;100281.20;108064;1284;22176;-61
2023/07/24 10:49:07;;;;;;;5.20;3.00;;;;;;;42.05;22.66;100282.09;108026;1284;23315;-61
2023/07/24 10:51:34;;;;;;;5.20;3.20;;;;;;;42.08;22.22;100275.64;108047;1288;22043;-61
2023/07/24 10:54:00;;;;;;;4.40;3.10;;;;;;;42.14;22.35;100272.56;108127;1283;22004;-66
2023/07/24 10:56:26;;;;;;;5.40;3.30;;;;;;;42.34;22.57;100267.67;108032;1288;23615;-67
2023/07/24 10:58:51;;;;;;;4.10;3.20;;;;;;;42.58;22.49;100266.91;108007;1288;22003;-67
2023/07/24 11:01:17;;;;;;;4.30;3.10;;;;;;;42.65;21.39;100267.83;108038;1288;21992;-66
2023/07/24 11:03:43;;;;;;;4.30;3.30;;;;;;;42.63;21.16;100265.16;107932;1288;22003;-64
2023/07/24 11:06:15;;;;;;;5.90;3.00;;;;;;;42.71;21.69;100267.05;108074;1288;21994;-67
2023/07/24 11:08:41;;;;;;;4.00;3.50;;;;;;;42.72;21.56;100266.52;108071;1283;22270;-67
2023/07/24 11:11:07;;;;;;;5.70;3.30;;;;;;;42.50;21.72;100259.95;107826;1286;21997;-62